sensor_id;sensor_type;location;lat;lon;timestamp;pressure;altitude;pressure_sealevel;temperature;humidity
21185;BME280;18176;49.502;11.754;2024-02-16T00:03:24;96985.81;;;12.51;57.26
21185;BME280;18176;49.502;11.754;2024-02-16T00:07:47;96978.16;;;12.55;56.66
21185;BME280;18176;49.502;11.754;2024-02-16T00:12:08;96974.72;;;12.54;56.58
21185;BME280;18176;49.502;11.754;2024-02-16T00:16:29;96967.59;;;12.60;56.13
21185;BME280;18176;49.502;11.754;2024-02-16T00:20:50;96968.25;;;12.34;56.76
21185;BME280;18176;49.502;11.754;2024-02-16T00:25:13;96970.63;;;12.19;57.30
21185;BME280;18176;49.502;11.754;2024-02-16T00:29:35;96975.94;;;12.19;57.19
21185;BME280;18176;49.502;11.754;2024-02-16T00:33:56;96965.00;;;12.15;57.12
21185;BME280;18176;49.502;11.754;2024-02-16T00:38:16;96974.13;;;12.08;57.42
21185;BME280;18176;49.502;11.754;2024-02-16T00:42:40;96969.19;;;11.99;57.12
21185;BME280;18176;49.502;11.754;2024-02-16T00:47:00;96977.16;;;11.99;57.35
21185;BME280;18176;49.502;11.754;2024-02-16T00:51:24;96958.16;;;11.91;57.38
21185;BME280;18176;49.502;11.754;2024-02-16T00:55:44;96942.38;;;11.84;57.32
21185;BME280;18176;49.502;11.754;2024-02-16T01:00:09;96972.66;;;12.00;57.50
21185;BME280;18176;49.502;11.754;2024-02-16T01:04:30;96948.53;;;12.02;57.29
21185;BME280;18176;49.502;11.754;2024-02-16T01:08:50;96963.72;;;12.18;57.74
21185;BME280;18176;49.502;11.754;2024-02-16T01:13:11;96945.19;;;12.23;57.81
21185;BME280;18176;49.502;11.754;2024-02-16T01:17:34;96901.09;;;12.22;58.45
21185;BME280;18176;49.502;11.754;2024-02-16T01:21:54;96949.09;;;12.65;61.26
21185;BME280;18176;49.502;11.754;2024-02-16T01:26:16;96938.25;;;13.21;59.74
21185;BME280;18176;49.502;11.754;2024-02-16T01:30:37;96939.69;;;13.12;59.15
21185;BME280;18176;49.502;11.754;2024-02-16T01:35:00;96938.44;;;12.98;58.73
21185;BME280;18176;49.502;11.754;2024-02-16T01:39:21;96939.38;;;13.25;57.51
21185;BME280;18176;49.502;11.754;2024-02-16T01:43:42;96942.63;;;13.11;57.57
21185;BME280;18176;49.502;11.754;2024-02-16T01:48:03;96948.44;;;12.91;58.10
21185;BME280;18176;49.502;11.754;2024-02-16T01:52:27;96947.63;;;12.74;58.51
21185;BME280;18176;49.502;11.754;2024-02-16T01:56:48;96941.75;;;12.72;58.47
21185;BME280;18176;49.502;11.754;2024-02-16T02:01:09;96923.47;;;12.59;58.66
21185;BME280;18176;49.502;11.754;2024-02-16T02:05:31;96932.00;;;12.78;58.92
21185;BME280;18176;49.502;11.754;2024-02-16T02:09:56;96912.38;;;12.45;59.88
21185;BME280;18176;49.502;11.754;2024-02-16T02:14:16;96941.59;;;12.62;59.64
21185;BME280;18176;49.502;11.754;2024-02-16T02:18:37;96952.78;;;12.64;59.24
21185;BME280;18176;49.502;11.754;2024-02-16T02:23:01;96948.91;;;12.55;59.67
21185;BME280;18176;49.502;11.754;2024-02-16T02:27:22;96936.22;;;12.57;59.89
21185;BME280;18176;49.502;11.754;2024-02-16T02:31:42;96939.34;;;12.71;59.89
21185;BME280;18176;49.502;11.754;2024-02-16T02:36:04;96927.63;;;12.88;59.32
21185;BME280;18176;49.502;11.754;2024-02-16T02:40:27;96913.16;;;12.79;59.11
21185;BME280;18176;49.502;11.754;2024-02-16T02:44:48;96924.53;;;12.96;59.49
21185;BME280;18176;49.502;11.754;2024-02-16T02:49:09;96915.34;;;13.20;58.37
21185;BME280;18176;49.502;11.754;2024-02-16T02:53:30;96899.56;;;13.14;58.33
21185;BME280;18176;49.502;11.754;2024-02-16T02:57:53;96907.19;;;13.05;59.05
21185;BME280;18176;49.502;11.754;2024-02-16T03:02:15;96910.84;;;13.04;58.81
21185;BME280;18176;49.502;11.754;2024-02-16T03:06:36;96909.72;;;13.00;58.83
21185;BME280;18176;49.502;11.754;2024-02-16T03:10:56;96908.91;;;13.00;58.48
21185;BME280;18176;49.502;11.754;2024-02-16T03:15:21;96909.41;;;12.97;58.30
21185;BME280;18176;49.502;11.754;2024-02-16T03:19:42;96919.09;;;12.86;58.92
21185;BME280;18176;49.502;11.754;2024-02-16T03:24:03;96917.63;;;12.95;58.99
21185;BME280;18176;49.502;11.754;2024-02-16T03:28:24;96919.59;;;12.83;59.22
21185;BME280;18176;49.502;11.754;2024-02-16T03:32:51;96922.03;;;12.68;59.28
21185;BME280;18176;49.502;11.754;2024-02-16T03:37:12;96932.16;;;12.71;59.32
21185;BME280;18176;49.502;11.754;2024-02-16T03:41:33;96928.63;;;12.82;59.12
21185;BME280;18176;49.502;11.754;2024-02-16T03:45:54;96916.19;;;12.71;59.28
21185;BME280;18176;49.502;11.754;2024-02-16T03:50:17;96933.31;;;12.75;59.17
21185;BME280;18176;49.502;11.754;2024-02-16T03:54:38;96938.44;;;12.82;58.76
21185;BME280;18176;49.502;11.754;2024-02-16T03:58:59;96935.16;;;12.58;59.48
21185;BME280;18176;49.502;11.754;2024-02-16T04:03:24;96934.25;;;12.69;58.97
21185;BME280;18176;49.502;11.754;2024-02-16T04:07:47;96940.72;;;12.56;59.33
21185;BME280;18176;49.502;11.754;2024-02-16T04:12:08;96934.91;;;12.59;58.87
21185;BME280;18176;49.502;11.754;2024-02-16T04:16:29;96944.00;;;12.47;59.71
21185;BME280;18176;49.502;11.754;2024-02-16T04:20:49;96948.25;;;12.48;59.95
21185;BME280;18176;49.502;11.754;2024-02-16T04:25:13;96942.00;;;12.54;59.67
21185;BME280;18176;49.502;11.754;2024-02-16T04:29:33;96952.16;;;12.57;59.18
21185;BME280;18176;49.502;11.754;2024-02-16T04:33:54;96950.38;;;12.62;59.17
21185;BME280;18176;49.502;11.754;2024-02-16T04:38:15;96956.50;;;12.63;59.17
21185;BME280;18176;49.502;11.754;2024-02-16T04:42:38;96927.34;;;12.35;59.35
21185;BME280;18176;49.502;11.754;2024-02-16T04:47:00;96943.59;;;12.55;59.45
21185;BME280;18176;49.502;11.754;2024-02-16T04:51:21;96940.88;;;12.50;59.47
21185;BME280;18176;49.502;11.754;2024-02-16T04:55:42;96935.22;;;12.30;59.78
21185;BME280;18176;49.502;11.754;2024-02-16T05:00:07;96942.63;;;12.28;59.81
21185;BME280;18176;49.502;11.754;2024-02-16T05:04:29;96954.22;;;12.22;60.00
21185;BME280;18176;49.502;11.754;2024-02-16T05:08:50;96938.78;;;12.35;59.67
21185;BME280;18176;49.502;11.754;2024-02-16T05:13:11;96937.47;;;12.38;59.28
21185;BME280;18176;49.502;11.754;2024-02-16T05:17:34;96936.09;;;12.35;59.67
21185;BME280;18176;49.502;11.754;2024-02-16T05:21:55;96937.72;;;12.20;60.19
21185;BME280;18176;49.502;11.754;2024-02-16T05:26:16;96936.28;;;12.29;59.90
21185;BME280;18176;49.502;11.754;2024-02-16T05:30:36;96946.97;;;12.17;60.30
21185;BME280;18176;49.502;11.754;2024-02-16T05:35:00;96932.47;;;12.41;59.67
21185;BME280;18176;49.502;11.754;2024-02-16T05:39:22;96935.88;;;12.53;59.61
21185;BME280;18176;49.502;11.754;2024-02-16T05:43:49;96914.78;;;12.47;59.73
21185;BME280;18176;49.502;11.754;2024-02-16T05:48:10;96925.06;;;12.60;59.50
21185;BME280;18176;49.502;11.754;2024-02-16T05:52:33;96919.13;;;12.53;59.59
21185;BME280;18176;49.502;11.754;2024-02-16T05:56:54;96913.06;;;12.74;59.55
21185;BME280;18176;49.502;11.754;2024-02-16T06:01:14;96923.94;;;12.89;58.99
21185;BME280;18176;49.502;11.754;2024-02-16T06:05:35;96914.53;;;12.65;59.37
21185;BME280;18176;49.502;11.754;2024-02-16T06:09:59;96927.16;;;12.91;59.01
21185;BME280;18176;49.502;11.754;2024-02-16T06:14:23;96938.75;;;12.85;59.18
21185;BME280;18176;49.502;11.754;2024-02-16T06:18:44;96937.84;;;12.96;59.36
21185;BME280;18176;49.502;11.754;2024-02-16T06:23:04;96937.09;;;13.01;59.40
21185;BME280;18176;49.502;11.754;2024-02-16T06:27:29;96938.25;;;13.21;59.70
21185;BME280;18176;49.502;11.754;2024-02-16T06:31:50;96945.97;;;13.23;60.70
21185;BME280;18176;49.502;11.754;2024-02-16T06:36:11;96935.06;;;13.63;59.63
21185;BME280;18176;49.502;11.754;2024-02-16T06:40:31;96938.34;;;13.75;59.51
21185;BME280;18176;49.502;11.754;2024-02-16T06:44:55;96927.69;;;13.48;60.78
21185;BME280;18176;49.502;11.754;2024-02-16T06:49:16;96945.00;;;13.72;60.45
21185;BME280;18176;49.502;11.754;2024-02-16T06:53:36;96965.94;;;13.85;59.34
21185;BME280;18176;49.502;11.754;2024-02-16T06:57:57;96974.06;;;14.00;59.48
21185;BME280;18176;49.502;11.754;2024-02-16T07:02:20;96976.16;;;14.20;59.03
21185;BME280;18176;49.502;11.754;2024-02-16T07:06:43;96969.97;;;14.15;58.52
21185;BME280;18176;49.502;11.754;2024-02-16T07:11:04;96974.81;;;14.18;58.04
21185;BME280;18176;49.502;11.754;2024-02-16T07:15:25;96988.69;;;14.20;58.45
21185;BME280;18176;49.502;11.754;2024-02-16T07:19:49;96981.25;;;14.22;58.26
21185;BME280;18176;49.502;11.754;2024-02-16T07:24:09;96983.31;;;14.41;58.46
21185;BME280;18176;49.502;11.754;2024-02-16T07:28:30;96991.41;;;14.51;58.01
21185;BME280;18176;49.502;11.754;2024-02-16T07:32:51;96993.72;;;14.69;57.79
21185;BME280;18176;49.502;11.754;2024-02-16T07:37:15;96958.16;;;14.32;57.93
21185;BME280;18176;49.502;11.754;2024-02-16T07:41:36;96998.03;;;14.75;57.44
21185;BME280;18176;49.502;11.754;2024-02-16T07:45:56;96957.22;;;14.43;57.92
21185;BME280;18176;49.502;11.754;2024-02-16T07:50:19;96991.91;;;14.48;57.79
21185;BME280;18176;49.502;11.754;2024-02-16T07:54:42;97000.13;;;14.73;57.29
21185;BME280;18176;49.502;11.754;2024-02-16T07:59:02;96993.31;;;14.88;56.67
21185;BME280;18176;49.502;11.754;2024-02-16T08:03:23;96991.47;;;14.88;56.68
21185;BME280;18176;49.502;11.754;2024-02-16T08:07:44;97000.38;;;15.04;56.26
21185;BME280;18176;49.502;11.754;2024-02-16T08:12:07;97010.47;;;14.97;56.68
21185;BME280;18176;49.502;11.754;2024-02-16T08:16:28;97000.75;;;15.17;55.68
21185;BME280;18176;49.502;11.754;2024-02-16T08:20:49;97003.78;;;15.31;56.30
21185;BME280;18176;49.502;11.754;2024-02-16T08:25:10;97004.91;;;15.40;55.57
21185;BME280;18176;49.502;11.754;2024-02-16T08:29:33;96974.59;;;15.61;54.82
21185;BME280;18176;49.502;11.754;2024-02-16T08:33:54;96998.84;;;16.06;54.35
21185;BME280;18176;49.502;11.754;2024-02-16T08:38:15;96993.97;;;15.93;53.88
21185;BME280;18176;49.502;11.754;2024-02-16T08:42:35;96999.09;;;16.10;53.59
21185;BME280;18176;49.502;11.754;2024-02-16T08:46:58;96979.34;;;16.16;53.51
21185;BME280;18176;49.502;11.754;2024-02-16T08:51:19;96964.50;;;15.73;53.87
21185;BME280;18176;49.502;11.754;2024-02-16T08:55:40;96986.06;;;16.39;52.74
21185;BME280;18176;49.502;11.754;2024-02-16T09:00:01;96992.88;;;15.89;53.75
21185;BME280;18176;49.502;11.754;2024-02-16T09:04:24;97000.25;;;16.34;53.07
21185;BME280;18176;49.502;11.754;2024-02-16T09:08:45;96962.59;;;16.61;52.13
21185;BME280;18176;49.502;11.754;2024-02-16T09:13:06;96990.38;;;17.25;51.50
21185;BME280;18176;49.502;11.754;2024-02-16T09:17:27;96992.41;;;17.84;49.56
21185;BME280;18176;49.502;11.754;2024-02-16T09:21:50;96987.53;;;18.45;48.72
21185;BME280;18176;49.502;11.754;2024-02-16T09:26:15;96977.94;;;18.77;46.84
21185;BME280;18176;49.502;11.754;2024-02-16T09:30:37;96985.81;;;18.64;46.84
21185;BME280;18176;49.502;11.754;2024-02-16T09:34:57;97008.31;;;18.24;47.59
21185;BME280;18176;49.502;11.754;2024-02-16T09:39:21;96994.25;;;18.42;48.09
21185;BME280;18176;49.502;11.754;2024-02-16T09:43:42;96983.25;;;17.90;48.37
21185;BME280;18176;49.502;11.754;2024-02-16T09:48:08;96998.56;;;18.48;47.60
21185;BME280;18176;49.502;11.754;2024-02-16T09:52:31;97002.34;;;19.15;46.58
21185;BME280;18176;49.502;11.754;2024-02-16T09:56:57;97009.63;;;19.43;45.73
21185;BME280;18176;49.502;11.754;2024-02-16T10:01:18;97010.75;;;19.37;46.00
21185;BME280;18176;49.502;11.754;2024-02-16T10:05:40;97011.69;;;19.51;45.66
21185;BME280;18176;49.502;11.754;2024-02-16T10:10:02;97011.13;;;19.20;46.06
21185;BME280;18176;49.502;11.754;2024-02-16T10:14:25;97007.25;;;18.74;46.66
21185;BME280;18176;49.502;11.754;2024-02-16T10:18:49;97015.84;;;19.05;46.57
21185;BME280;18176;49.502;11.754;2024-02-16T10:23:12;97031.72;;;19.87;45.33
21185;BME280;18176;49.502;11.754;2024-02-16T10:27:34;97021.53;;;20.08;45.17
21185;BME280;18176;49.502;11.754;2024-02-16T10:31:57;97025.63;;;20.85;43.51
21185;BME280;18176;49.502;11.754;2024-02-16T10:36:19;97023.56;;;21.74;42.09
21185;BME280;18176;49.502;11.754;2024-02-16T10:40:41;97020.97;;;22.50;40.33
21185;BME280;18176;49.502;11.754;2024-02-16T10:45:04;97020.44;;;23.64;39.29
21185;BME280;18176;49.502;11.754;2024-02-16T10:49:28;97020.84;;;24.19;36.97
21185;BME280;18176;49.502;11.754;2024-02-16T10:53:53;97005.22;;;24.24;36.92
21185;BME280;18176;49.502;11.754;2024-02-16T10:58:17;97016.75;;;24.73;36.79
21185;BME280;18176;49.502;11.754;2024-02-16T11:02:55;97006.59;;;24.87;35.68
21185;BME280;18176;49.502;11.754;2024-02-16T11:07:20;97003.19;;;24.38;36.11
21185;BME280;18176;49.502;11.754;2024-02-16T11:16:06;96999.63;;;24.12;36.02
21185;BME280;18176;49.502;11.754;2024-02-16T11:20:29;96995.19;;;24.16;37.18
21185;BME280;18176;49.502;11.754;2024-02-16T11:24:54;96986.78;;;23.48;37.32
21185;BME280;18176;49.502;11.754;2024-02-16T11:29:18;96991.06;;;23.49;37.66
21185;BME280;18176;49.502;11.754;2024-02-16T11:33:43;96995.38;;;23.28;38.39
21185;BME280;18176;49.502;11.754;2024-02-16T11:38:05;96960.16;;;22.88;38.42
21185;BME280;18176;49.502;11.754;2024-02-16T11:42:30;96990.75;;;22.97;38.42
21185;BME280;18176;49.502;11.754;2024-02-16T11:46:53;96972.66;;;23.07;38.94
21185;BME280;18176;49.502;11.754;2024-02-16T11:51:15;96959.16;;;22.62;39.01
21185;BME280;18176;49.502;11.754;2024-02-16T12:00:03;96960.84;;;22.58;39.09
21185;BME280;18176;49.502;11.754;2024-02-16T12:04:30;96974.94;;;22.55;39.49
21185;BME280;18176;49.502;11.754;2024-02-16T12:09:01;96975.06;;;22.01;40.32
21185;BME280;18176;49.502;11.754;2024-02-16T12:13:27;96976.66;;;22.02;40.82
21185;BME280;18176;49.502;11.754;2024-02-16T12:17:59;96990.34;;;22.19;40.85
21185;BME280;18176;49.502;11.754;2024-02-16T12:22:21;96981.94;;;21.80;41.41
21185;BME280;18176;49.502;11.754;2024-02-16T12:26:42;96971.16;;;21.80;41.35
21185;BME280;18176;49.502;11.754;2024-02-16T12:31:03;96963.09;;;21.20;42.10
21185;BME280;18176;49.502;11.754;2024-02-16T12:35:26;96985.03;;;21.73;42.09
21185;BME280;18176;49.502;11.754;2024-02-16T12:39:47;96975.34;;;21.58;41.85
21185;BME280;18176;49.502;11.754;2024-02-16T12:44:08;96984.34;;;21.95;41.22
21185;BME280;18176;49.502;11.754;2024-02-16T12:48:28;96983.28;;;22.45;40.76
21185;BME280;18176;49.502;11.754;2024-02-16T12:52:52;96956.31;;;22.31;40.51
21185;BME280;18176;49.502;11.754;2024-02-16T12:57:21;96970.75;;;21.73;41.65
21185;BME280;18176;49.502;11.754;2024-02-16T13:01:42;96968.72;;;21.78;41.77
21185;BME280;18176;49.502;11.754;2024-02-16T13:06:05;96959.75;;;21.55;42.03
21185;BME280;18176;49.502;11.754;2024-02-16T13:10:28;96955.88;;;21.89;41.83
21185;BME280;18176;49.502;11.754;2024-02-16T13:14:49;96967.25;;;21.58;41.92
21185;BME280;18176;49.502;11.754;2024-02-16T13:19:10;96937.09;;;21.70;41.78
21185;BME280;18176;49.502;11.754;2024-02-16T13:23:31;96951.03;;;21.31;42.38
21185;BME280;18176;49.502;11.754;2024-02-16T13:27:54;96961.75;;;21.63;41.98
21185;BME280;18176;49.502;11.754;2024-02-16T13:32:14;96954.19;;;21.93;42.02
21185;BME280;18176;49.502;11.754;2024-02-16T13:36:35;96945.34;;;21.33;42.37
21185;BME280;18176;49.502;11.754;2024-02-16T13:40:57;96950.56;;;21.43;42.36
21185;BME280;18176;49.502;11.754;2024-02-16T13:45:20;96960.03;;;21.40;42.58
21185;BME280;18176;49.502;11.754;2024-02-16T13:49:43;96962.28;;;21.06;43.31
21185;BME280;18176;49.502;11.754;2024-02-16T13:54:05;96979.31;;;20.83;43.92
21185;BME280;18176;49.502;11.754;2024-02-16T13:58:26;96973.59;;;21.03;43.35
21185;BME280;18176;49.502;11.754;2024-02-16T14:02:50;96983.81;;;21.06;43.55
21185;BME280;18176;49.502;11.754;2024-02-16T14:07:10;96981.38;;;21.23;43.20
21185;BME280;18176;49.502;11.754;2024-02-16T14:11:31;96992.63;;;21.25;43.37
21185;BME280;18176;49.502;11.754;2024-02-16T14:15:52;96991.09;;;21.51;42.73
21185;BME280;18176;49.502;11.754;2024-02-16T14:20:15;96996.63;;;21.14;43.58
21185;BME280;18176;49.502;11.754;2024-02-16T14:24:36;96993.25;;;21.22;43.65
21185;BME280;18176;49.502;11.754;2024-02-16T14:28:57;96993.88;;;21.46;43.37
21185;BME280;18176;49.502;11.754;2024-02-16T14:33:17;97000.06;;;21.33;43.49
21185;BME280;18176;49.502;11.754;2024-02-16T14:37:53;96992.69;;;21.07;43.84
21185;BME280;18176;49.502;11.754;2024-02-16T14:42:13;97001.97;;;20.63;44.34
21185;BME280;18176;49.502;11.754;2024-02-16T14:46:34;96988.38;;;20.55;44.74
21185;BME280;18176;49.502;11.754;2024-02-16T14:50:55;97010.03;;;20.82;44.51
21185;BME280;18176;49.502;11.754;2024-02-16T14:55:18;96991.81;;;20.60;44.34
21185;BME280;18176;49.502;11.754;2024-02-16T14:59:39;97022.63;;;20.68;45.01
21185;BME280;18176;49.502;11.754;2024-02-16T15:04:00;97013.41;;;20.74;44.56
21185;BME280;18176;49.502;11.754;2024-02-16T15:08:21;97016.75;;;20.66;44.55
21185;BME280;18176;49.502;11.754;2024-02-16T15:12:44;97022.56;;;20.73;44.63
21185;BME280;18176;49.502;11.754;2024-02-16T15:17:05;97028.69;;;20.60;44.52
21185;BME280;18176;49.502;11.754;2024-02-16T15:21:26;97036.75;;;20.41;44.94
21185;BME280;18176;49.502;11.754;2024-02-16T15:25:47;97025.06;;;20.69;44.42
21185;BME280;18176;49.502;11.754;2024-02-16T15:30:11;97036.09;;;20.31;45.06
21185;BME280;18176;49.502;11.754;2024-02-16T15:34:32;97040.44;;;20.26;45.83
21185;BME280;18176;49.502;11.754;2024-02-16T15:38:52;97040.53;;;20.16;45.72
21185;BME280;18176;49.502;11.754;2024-02-16T15:43:13;97033.78;;;19.95;46.43
21185;BME280;18176;49.502;11.754;2024-02-16T15:47:36;97049.22;;;19.85;46.58
21185;BME280;18176;49.502;11.754;2024-02-16T15:51:57;97038.88;;;19.73;47.18
21185;BME280;18176;49.502;11.754;2024-02-16T15:56:18;97043.25;;;19.64;47.51
21185;BME280;18176;49.502;11.754;2024-02-16T16:00:39;97032.50;;;19.40;48.27
21185;BME280;18176;49.502;11.754;2024-02-16T16:05:03;97057.94;;;19.48;48.53
21185;BME280;18176;49.502;11.754;2024-02-16T16:09:24;97059.66;;;19.34;48.85
21185;BME280;18176;49.502;11.754;2024-02-16T16:13:45;97061.25;;;19.35;48.90
21185;BME280;18176;49.502;11.754;2024-02-16T16:18:06;97061.59;;;19.28;49.35
21185;BME280;18176;49.502;11.754;2024-02-16T16:22:29;97064.16;;;19.10;49.83
21185;BME280;18176;49.502;11.754;2024-02-16T16:26:50;97061.09;;;18.87;50.54
21185;BME280;18176;49.502;11.754;2024-02-16T16:31:10;97078.13;;;18.68;51.24
21185;BME280;18176;49.502;11.754;2024-02-16T16:35:31;97075.06;;;18.84;50.66
21185;BME280;18176;49.502;11.754;2024-02-16T16:39:55;97084.44;;;18.92;50.33
21185;BME280;18176;49.502;11.754;2024-02-16T16:44:15;97099.25;;;18.84;50.54
21185;BME280;18176;49.502;11.754;2024-02-16T16:48:37;97099.56;;;18.78;51.10
21185;BME280;18176;49.502;11.754;2024-02-16T16:52:57;97100.44;;;18.58;51.54
21185;BME280;18176;49.502;11.754;2024-02-16T16:57:21;97115.00;;;18.47;52.08
21185;BME280;18176;49.502;11.754;2024-02-16T17:01:42;97102.69;;;18.46;52.26
21185;BME280;18176;49.502;11.754;2024-02-16T17:06:04;97118.75;;;18.41;52.27
21185;BME280;18176;49.502;11.754;2024-02-16T17:10:25;97120.88;;;18.44;52.63
21185;BME280;18176;49.502;11.754;2024-02-16T17:14:48;97129.50;;;18.46;52.62
21185;BME280;18176;49.502;11.754;2024-02-16T17:19:09;97127.06;;;18.55;52.24
21185;BME280;18176;49.502;11.754;2024-02-16T17:23:29;97136.97;;;18.54;52.21
21185;BME280;18176;49.502;11.754;2024-02-16T17:27:50;97139.88;;;18.63;51.85
21185;BME280;18176;49.502;11.754;2024-02-16T17:32:14;97125.72;;;18.47;52.20
21185;BME280;18176;49.502;11.754;2024-02-16T17:36:34;97149.28;;;18.60;52.15
21185;BME280;18176;49.502;11.754;2024-02-16T17:40:55;97165.97;;;18.52;52.20
21185;BME280;18176;49.502;11.754;2024-02-16T17:45:17;97159.56;;;18.48;52.31
21185;BME280;18176;49.502;11.754;2024-02-16T17:49:41;97168.13;;;18.50;52.31
21185;BME280;18176;49.502;11.754;2024-02-16T17:54:02;97161.13;;;18.59;51.92
21185;BME280;18176;49.502;11.754;2024-02-16T17:58:23;97153.66;;;18.46;51.87
21185;BME280;18176;49.502;11.754;2024-02-16T18:02:44;97177.22;;;18.44;52.37
21185;BME280;18176;49.502;11.754;2024-02-16T18:07:09;97176.72;;;18.47;52.55
21185;BME280;18176;49.502;11.754;2024-02-16T18:11:31;97193.34;;;18.49;53.04
21185;BME280;18176;49.502;11.754;2024-02-16T18:15:51;97169.78;;;18.26;53.63
21185;BME280;18176;49.502;11.754;2024-02-16T18:20:13;97190.47;;;18.05;54.42
21185;BME280;18176;49.502;11.754;2024-02-16T18:24:37;97181.66;;;17.85;55.24
21185;BME280;18176;49.502;11.754;2024-02-16T18:28:59;97207.91;;;17.83;55.22
21185;BME280;18176;49.502;11.754;2024-02-16T18:33:20;97200.97;;;17.57;56.16
21185;BME280;18176;49.502;11.754;2024-02-16T18:37:41;97209.53;;;17.53;56.39
21185;BME280;18176;49.502;11.754;2024-02-16T18:42:06;97219.16;;;17.60;56.71
21185;BME280;18176;49.502;11.754;2024-02-16T18:46:27;97224.47;;;17.34;56.70
21185;BME280;18176;49.502;11.754;2024-02-16T18:50:49;97221.78;;;17.34;56.80
21185;BME280;18176;49.502;11.754;2024-02-16T18:55:10;97229.56;;;17.31;56.60
21185;BME280;18176;49.502;11.754;2024-02-16T18:59:33;97222.28;;;17.16;56.98
21185;BME280;18176;49.502;11.754;2024-02-16T19:03:54;97211.56;;;17.16;56.93
21185;BME280;18176;49.502;11.754;2024-02-16T19:08:15;97210.28;;;17.29;56.82
21185;BME280;18176;49.502;11.754;2024-02-16T19:12:36;97226.03;;;17.15;57.37
21185;BME280;18176;49.502;11.754;2024-02-16T19:17:00;97227.13;;;17.19;58.21
21185;BME280;18176;49.502;11.754;2024-02-16T19:21:21;97234.63;;;17.27;57.29
21185;BME280;18176;49.502;11.754;2024-02-16T19:25:42;97244.91;;;17.61;56.48
21185;BME280;18176;49.502;11.754;2024-02-16T19:30:04;97248.66;;;17.70;55.93
21185;BME280;18176;49.502;11.754;2024-02-16T19:34:28;97255.09;;;17.69;55.91
21185;BME280;18176;49.502;11.754;2024-02-16T19:38:48;97241.63;;;17.43;56.38
21185;BME280;18176;49.502;11.754;2024-02-16T19:43:09;97250.69;;;17.27;56.62
21185;BME280;18176;49.502;11.754;2024-02-16T19:47:31;97255.09;;;17.53;55.93
21185;BME280;18176;49.502;11.754;2024-02-16T19:51:55;97247.00;;;17.48;56.28
21185;BME280;18176;49.502;11.754;2024-02-16T19:56:16;97256.16;;;17.58;56.12
21185;BME280;18176;49.502;11.754;2024-02-16T20:00:36;97251.72;;;17.11;57.01
21185;BME280;18176;49.502;11.754;2024-02-16T20:04:57;97272.13;;;17.17;57.56
21185;BME280;18176;49.502;11.754;2024-02-16T20:09:21;97273.19;;;17.21;57.60
21185;BME280;18176;49.502;11.754;2024-02-16T20:13:41;97274.81;;;17.27;57.56
21185;BME280;18176;49.502;11.754;2024-02-16T20:18:04;97292.06;;;17.51;57.23
21185;BME280;18176;49.502;11.754;2024-02-16T20:22:25;97266.34;;;17.61;56.18
21185;BME280;18176;49.502;11.754;2024-02-16T20:26:49;97281.34;;;17.51;56.83
21185;BME280;18176;49.502;11.754;2024-02-16T20:31:12;97276.78;;;17.57;56.04
21185;BME280;18176;49.502;11.754;2024-02-16T20:35:33;97280.56;;;17.91;55.41
21185;BME280;18176;49.502;11.754;2024-02-16T20:39:54;97287.81;;;18.01;55.45
21185;BME280;18176;49.502;11.754;2024-02-16T20:44:17;97295.84;;;18.06;55.10
21185;BME280;18176;49.502;11.754;2024-02-16T20:48:39;97293.19;;;18.06;54.91
21185;BME280;18176;49.502;11.754;2024-02-16T20:52:59;97300.16;;;18.02;55.10
21185;BME280;18176;49.502;11.754;2024-02-16T20:57:20;97301.75;;;17.88;55.48
21185;BME280;18176;49.502;11.754;2024-02-16T21:01:43;97304.69;;;17.76;55.64
21185;BME280;18176;49.502;11.754;2024-02-16T21:06:05;97295.22;;;17.48;56.48
21185;BME280;18176;49.502;11.754;2024-02-16T21:10:26;97292.34;;;17.80;55.23
21185;BME280;18176;49.502;11.754;2024-02-16T21:14:47;97306.31;;;17.77;55.70
21185;BME280;18176;49.502;11.754;2024-02-16T21:19:11;97302.25;;;17.80;55.34
21185;BME280;18176;49.502;11.754;2024-02-16T21:23:32;97304.41;;;17.78;55.59
21185;BME280;18176;49.502;11.754;2024-02-16T21:27:52;97315.94;;;17.78;56.21
21185;BME280;18176;49.502;11.754;2024-02-16T21:32:13;97326.41;;;17.75;56.01
21185;BME280;18176;49.502;11.754;2024-02-16T21:36:37;97325.84;;;17.68;56.49
21185;BME280;18176;49.502;11.754;2024-02-16T21:40:58;97325.88;;;17.83;55.93
21185;BME280;18176;49.502;11.754;2024-02-16T21:45:21;97324.25;;;17.72;56.39
21185;BME280;18176;49.502;11.754;2024-02-16T21:49:43;97326.38;;;17.65;57.42
21185;BME280;18176;49.502;11.754;2024-02-16T21:54:07;97335.50;;;17.74;59.02
21185;BME280;18176;49.502;11.754;2024-02-16T21:58:28;97335.25;;;18.00;58.60
21185;BME280;18176;49.502;11.754;2024-02-16T22:02:51;97346.81;;;18.26;58.32
21185;BME280;18176;49.502;11.754;2024-02-16T22:07:11;97347.34;;;18.38;58.52
21185;BME280;18176;49.502;11.754;2024-02-16T22:11:36;97346.25;;;18.74;57.49
21185;BME280;18176;49.502;11.754;2024-02-16T22:16:04;97334.72;;;18.84;57.77
21185;BME280;18176;49.502;11.754;2024-02-16T22:20:25;97356.47;;;18.87;58.29
21185;BME280;18176;49.502;11.754;2024-02-16T22:24:46;97360.50;;;18.90;58.39
21185;BME280;18176;49.502;11.754;2024-02-16T22:29:09;97331.53;;;18.42;59.64
21185;BME280;18176;49.502;11.754;2024-02-16T22:33:30;97362.66;;;18.68;59.35
21185;BME280;18176;49.502;11.754;2024-02-16T22:37:52;97347.88;;;18.40;60.21
21185;BME280;18176;49.502;11.754;2024-02-16T22:42:13;97379.00;;;18.81;59.41
21185;BME280;18176;49.502;11.754;2024-02-16T22:46:37;97373.03;;;19.15;58.92
21185;BME280;18176;49.502;11.754;2024-02-16T22:50:58;97386.47;;;19.05;58.82
21185;BME280;18176;49.502;11.754;2024-02-16T22:55:18;97387.34;;;18.80;59.55
21185;BME280;18176;49.502;11.754;2024-02-16T22:59:39;97384.94;;;18.73;59.71